sensor_id;sensor_type;location;lat;lon;timestamp;temperature;humidity
1956;DHT22;978;48.314;11.562;2022-11-20T00:00:16;22.20;72.40
1956;DHT22;978;48.314;11.562;2022-11-20T00:02:43;22.20;72.40
1956;DHT22;978;48.314;11.562;2022-11-20T00:05:09;22.20;72.40
1956;DHT22;978;48.314;11.562;2022-11-20T00:07:36;22.20;72.50
1956;DHT22;978;48.314;11.562;2022-11-20T00:10:03;22.20;72.40
1956;DHT22;978;48.314;11.562;2022-11-20T00:12:30;22.20;72.40
1956;DHT22;978;48.314;11.562;2022-11-20T00:14:59;22.20;72.40
1956;DHT22;978;48.314;11.562;2022-11-20T00:17:25;22.20;72.40
1956;DHT22;978;48.314;11.562;2022-11-20T00:19:52;22.20;72.40
1956;DHT22;978;48.314;11.562;2022-11-20T00:22:19;22.20;72.50
1956;DHT22;978;48.314;11.562;2022-11-20T00:24:45;22.20;72.40
1956;DHT22;978;48.314;11.562;2022-11-20T00:27:12;22.20;72.40
1956;DHT22;978;48.314;11.562;2022-11-20T00:29:39;22.20;72.50
1956;DHT22;978;48.314;11.562;2022-11-20T00:32:07;22.20;72.40
1956;DHT22;978;48.314;11.562;2022-11-20T00:34:33;22.20;72.50
1956;DHT22;978;48.314;11.562;2022-11-20T00:37:00;22.20;72.50
1956;DHT22;978;48.314;11.562;2022-11-20T00:39:27;22.20;72.50
1956;DHT22;978;48.314;11.562;2022-11-20T00:41:53;22.20;72.50
1956;DHT22;978;48.314;11.562;2022-11-20T00:44:20;22.20;72.50
1956;DHT22;978;48.314;11.562;2022-11-20T00:46:47;22.20;72.50
1956;DHT22;978;48.314;11.562;2022-11-20T00:49:15;22.20;72.50
1956;DHT22;978;48.314;11.562;2022-11-20T00:51:42;22.20;72.50
1956;DHT22;978;48.314;11.562;2022-11-20T00:54:08;22.20;72.50
1956;DHT22;978;48.314;11.562;2022-11-20T00:56:35;22.20;72.50
1956;DHT22;978;48.314;11.562;2022-11-20T00:59:02;22.20;72.50
1956;DHT22;978;48.314;11.562;2022-11-20T01:01:29;22.20;72.50
1956;DHT22;978;48.314;11.562;2022-11-20T01:03:57;22.20;72.50
1956;DHT22;978;48.314;11.562;2022-11-20T01:06:26;22.20;72.50
1956;DHT22;978;48.314;11.562;2022-11-20T01:08:55;22.20;72.50
1956;DHT22;978;48.314;11.562;2022-11-20T01:11:23;22.20;72.50
1956;DHT22;978;48.314;11.562;2022-11-20T01:13:52;22.20;72.50
1956;DHT22;978;48.314;11.562;2022-11-20T01:16:21;22.20;72.50
1956;DHT22;978;48.314;11.562;2022-11-20T01:18:50;22.20;72.50
1956;DHT22;978;48.314;11.562;2022-11-20T01:21:18;22.20;72.50
1956;DHT22;978;48.314;11.562;2022-11-20T01:23:47;22.20;72.50
1956;DHT22;978;48.314;11.562;2022-11-20T01:26:16;22.20;72.50
1956;DHT22;978;48.314;11.562;2022-11-20T01:28:43;22.20;72.50
1956;DHT22;978;48.314;11.562;2022-11-20T01:31:12;22.20;72.50
1956;DHT22;978;48.314;11.562;2022-11-20T01:33:39;22.20;72.50
1956;DHT22;978;48.314;11.562;2022-11-20T01:36:08;22.20;72.60
1956;DHT22;978;48.314;11.562;2022-11-20T01:38:34;22.20;72.60
1956;DHT22;978;48.314;11.562;2022-11-20T01:41:03;22.20;72.50
1956;DHT22;978;48.314;11.562;2022-11-20T01:43:30;22.20;72.60
1956;DHT22;978;48.314;11.562;2022-11-20T01:46:14;22.20;72.60
1956;DHT22;978;48.314;11.562;2022-11-20T01:48:46;22.20;72.60
1956;DHT22;978;48.314;11.562;2022-11-20T01:51:19;22.20;72.60
1956;DHT22;978;48.314;11.562;2022-11-20T01:53:47;22.20;72.60
1956;DHT22;978;48.314;11.562;2022-11-20T01:56:16;22.20;72.60
1956;DHT22;978;48.314;11.562;2022-11-20T01:58:48;22.20;72.60
1956;DHT22;978;48.314;11.562;2022-11-20T02:01:16;22.20;72.60
1956;DHT22;978;48.314;11.562;2022-11-20T02:03:43;22.20;72.60
1956;DHT22;978;48.314;11.562;2022-11-20T02:06:16;22.20;72.60
1956;DHT22;978;48.314;11.562;2022-11-20T02:08:44;22.20;72.60
1956;DHT22;978;48.314;11.562;2022-11-20T02:11:11;22.20;72.60
1956;DHT22;978;48.314;11.562;2022-11-20T02:13:40;22.20;72.60
1956;DHT22;978;48.314;11.562;2022-11-20T02:16:12;22.20;72.60
1956;DHT22;978;48.314;11.562;2022-11-20T02:18:40;22.20;72.60
1956;DHT22;978;48.314;11.562;2022-11-20T02:21:15;22.20;72.60
1956;DHT22;978;48.314;11.562;2022-11-20T02:23:57;22.20;72.60
1956;DHT22;978;48.314;11.562;2022-11-20T02:26:26;22.20;72.70
1956;DHT22;978;48.314;11.562;2022-11-20T02:28:54;22.20;72.60
1956;DHT22;978;48.314;11.562;2022-11-20T02:31:21;22.20;72.60
1956;DHT22;978;48.314;11.562;2022-11-20T02:33:53;22.20;72.60
1956;DHT22;978;48.314;11.562;2022-11-20T02:36:20;22.20;72.60
1956;DHT22;978;48.314;11.562;2022-11-20T02:38:46;22.20;72.60
1956;DHT22;978;48.314;11.562;2022-11-20T02:41:16;22.20;72.60
1956;DHT22;978;48.314;11.562;2022-11-20T02:43:42;22.20;72.60
1956;DHT22;978;48.314;11.562;2022-11-20T02:46:09;22.20;73.20
1956;DHT22;978;48.314;11.562;2022-11-20T02:48:36;22.20;72.60
1956;DHT22;978;48.314;11.562;2022-11-20T02:51:03;22.20;72.70
1956;DHT22;978;48.314;11.562;2022-11-20T02:53:30;22.20;72.70
1956;DHT22;978;48.314;11.562;2022-11-20T02:55:56;22.20;72.70
1956;DHT22;978;48.314;11.562;2022-11-20T02:58:24;22.20;72.70
1956;DHT22;978;48.314;11.562;2022-11-20T03:00:52;22.20;72.70
1956;DHT22;978;48.314;11.562;2022-11-20T03:03:18;22.20;72.70
1956;DHT22;978;48.314;11.562;2022-11-20T03:05:45;22.20;72.70
1956;DHT22;978;48.314;11.562;2022-11-20T03:08:12;22.20;72.70
1956;DHT22;978;48.314;11.562;2022-11-20T03:10:38;22.20;72.70
1956;DHT22;978;48.314;11.562;2022-11-20T03:13:05;22.20;72.70
1956;DHT22;978;48.314;11.562;2022-11-20T03:15:35;22.20;72.70
1956;DHT22;978;48.314;11.562;2022-11-20T03:18:02;22.20;72.70
1956;DHT22;978;48.314;11.562;2022-11-20T03:20:29;22.20;72.70
1956;DHT22;978;48.314;11.562;2022-11-20T03:22:55;22.20;72.70
1956;DHT22;978;48.314;11.562;2022-11-20T03:25:22;22.20;72.70
1956;DHT22;978;48.314;11.562;2022-11-20T03:27:49;22.20;72.70
1956;DHT22;978;48.314;11.562;2022-11-20T03:30:16;22.20;72.70
1956;DHT22;978;48.314;11.562;2022-11-20T03:32:44;22.20;72.70
1956;DHT22;978;48.314;11.562;2022-11-20T03:35:11;22.20;72.70
1956;DHT22;978;48.314;11.562;2022-11-20T03:37:37;22.20;72.70
1956;DHT22;978;48.314;11.562;2022-11-20T03:40:05;22.20;72.70
1956;DHT22;978;48.314;11.562;2022-11-20T03:42:33;22.20;72.70
1956;DHT22;978;48.314;11.562;2022-11-20T03:45:12;22.20;72.70
1956;DHT22;978;48.314;11.562;2022-11-20T03:47:39;22.20;73.30
1956;DHT22;978;48.314;11.562;2022-11-20T03:50:07;22.20;72.70
1956;DHT22;978;48.314;11.562;2022-11-20T03:52:34;22.20;72.70
1956;DHT22;978;48.314;11.562;2022-11-20T03:55:01;22.20;72.70
1956;DHT22;978;48.314;11.562;2022-11-20T03:57:28;22.20;72.70
1956;DHT22;978;48.314;11.562;2022-11-20T03:59:55;22.20;72.70
1956;DHT22;978;48.314;11.562;2022-11-20T04:02:21;22.20;72.70
1956;DHT22;978;48.314;11.562;2022-11-20T04:04:48;22.20;72.70
1956;DHT22;978;48.314;11.562;2022-11-20T04:07:16;22.20;72.70
1956;DHT22;978;48.314;11.562;2022-11-20T04:09:43;22.20;72.70
1956;DHT22;978;48.314;11.562;2022-11-20T04:12:10;22.20;72.70
1956;DHT22;978;48.314;11.562;2022-11-20T04:14:36;22.20;72.70
1956;DHT22;978;48.314;11.562;2022-11-20T04:17:04;22.20;72.70
1956;DHT22;978;48.314;11.562;2022-11-20T04:19:31;22.20;72.70
1956;DHT22;978;48.314;11.562;2022-11-20T04:21:57;22.20;72.80
1956;DHT22;978;48.314;11.562;2022-11-20T04:24:26;22.20;72.70
1956;DHT22;978;48.314;11.562;2022-11-20T04:26:53;22.20;72.70
1956;DHT22;978;48.314;11.562;2022-11-20T04:29:19;22.20;72.70
1956;DHT22;978;48.314;11.562;2022-11-20T04:31:46;22.20;72.80
1956;DHT22;978;48.314;11.562;2022-11-20T04:34:13;22.20;72.70
1956;DHT22;978;48.314;11.562;2022-11-20T04:36:39;22.20;72.70
1956;DHT22;978;48.314;11.562;2022-11-20T04:39:06;22.20;72.70
1956;DHT22;978;48.314;11.562;2022-11-20T04:41:35;22.20;72.70
1956;DHT22;978;48.314;11.562;2022-11-20T04:44:04;22.20;72.80
1956;DHT22;978;48.314;11.562;2022-11-20T04:46:33;22.20;72.70
1956;DHT22;978;48.314;11.562;2022-11-20T04:49:00;22.20;72.80
1956;DHT22;978;48.314;11.562;2022-11-20T04:51:27;22.20;72.80
1956;DHT22;978;48.314;11.562;2022-11-20T04:53:54;22.20;72.70
1956;DHT22;978;48.314;11.562;2022-11-20T04:56:21;22.20;72.70
1956;DHT22;978;48.314;11.562;2022-11-20T04:58:49;22.20;72.70
1956;DHT22;978;48.314;11.562;2022-11-20T05:01:18;22.20;72.70
1956;DHT22;978;48.314;11.562;2022-11-20T05:03:45;22.20;72.70
1956;DHT22;978;48.314;11.562;2022-11-20T05:06:13;22.20;72.80
1956;DHT22;978;48.314;11.562;2022-11-20T05:08:41;22.20;72.80
1956;DHT22;978;48.314;11.562;2022-11-20T05:11:09;22.20;72.80
1956;DHT22;978;48.314;11.562;2022-11-20T05:13:37;22.20;72.80
1956;DHT22;978;48.314;11.562;2022-11-20T05:16:07;22.20;72.80
1956;DHT22;978;48.314;11.562;2022-11-20T05:18:34;22.20;72.80
1956;DHT22;978;48.314;11.562;2022-11-20T05:21:01;22.20;72.80
1956;DHT22;978;48.314;11.562;2022-11-20T05:23:29;22.20;72.80
1956;DHT22;978;48.314;11.562;2022-11-20T05:25:57;22.20;72.80
1956;DHT22;978;48.314;11.562;2022-11-20T05:28:25;22.20;72.80
1956;DHT22;978;48.314;11.562;2022-11-20T05:30:51;22.20;72.80
1956;DHT22;978;48.314;11.562;2022-11-20T05:33:20;22.20;72.80
1956;DHT22;978;48.314;11.562;2022-11-20T05:35:47;22.20;72.80
1956;DHT22;978;48.314;11.562;2022-11-20T05:38:14;22.20;72.80
1956;DHT22;978;48.314;11.562;2022-11-20T05:40:41;22.20;72.90
1956;DHT22;978;48.314;11.562;2022-11-20T05:43:07;22.20;72.80
1956;DHT22;978;48.314;11.562;2022-11-20T05:45:34;22.20;72.90
1956;DHT22;978;48.314;11.562;2022-11-20T05:48:01;22.20;72.90
1956;DHT22;978;48.314;11.562;2022-11-20T05:50:30;22.20;72.80
1956;DHT22;978;48.314;11.562;2022-11-20T05:52:58;22.20;72.80
1956;DHT22;978;48.314;11.562;2022-11-20T05:55:25;22.20;72.90
1956;DHT22;978;48.314;11.562;2022-11-20T05:57:53;22.20;72.80
1956;DHT22;978;48.314;11.562;2022-11-20T06:00:20;22.20;72.90
1956;DHT22;978;48.314;11.562;2022-11-20T06:02:47;22.20;72.90
1956;DHT22;978;48.314;11.562;2022-11-20T06:05:14;22.20;72.90
1956;DHT22;978;48.314;11.562;2022-11-20T06:07:42;22.20;72.90
1956;DHT22;978;48.314;11.562;2022-11-20T06:10:09;22.20;72.80
1956;DHT22;978;48.314;11.562;2022-11-20T06:12:36;22.20;72.90
1956;DHT22;978;48.314;11.562;2022-11-20T06:15:03;22.20;72.90
1956;DHT22;978;48.314;11.562;2022-11-20T06:17:30;22.20;72.90
1956;DHT22;978;48.314;11.562;2022-11-20T06:19:57;22.20;72.90
1956;DHT22;978;48.314;11.562;2022-11-20T06:22:24;22.20;72.90
1956;DHT22;978;48.314;11.562;2022-11-20T06:24:52;22.20;72.90
1956;DHT22;978;48.314;11.562;2022-11-20T06:27:18;22.20;72.90
1956;DHT22;978;48.314;11.562;2022-11-20T06:29:45;22.20;72.90
1956;DHT22;978;48.314;11.562;2022-11-20T06:32:12;22.20;72.90
1956;DHT22;978;48.314;11.562;2022-11-20T06:34:39;22.20;72.90
1956;DHT22;978;48.314;11.562;2022-11-20T06:37:05;22.20;72.90
1956;DHT22;978;48.314;11.562;2022-11-20T06:39:32;22.20;72.90
1956;DHT22;978;48.314;11.562;2022-11-20T06:42:00;22.20;72.90
1956;DHT22;978;48.314;11.562;2022-11-20T06:44:27;22.20;72.90
1956;DHT22;978;48.314;11.562;2022-11-20T06:46:54;22.20;72.90
1956;DHT22;978;48.314;11.562;2022-11-20T06:49:20;22.20;72.90
1956;DHT22;978;48.314;11.562;2022-11-20T06:51:47;22.20;72.90
1956;DHT22;978;48.314;11.562;2022-11-20T06:54:14;22.20;72.90
1956;DHT22;978;48.314;11.562;2022-11-20T06:56:40;22.20;72.90
1956;DHT22;978;48.314;11.562;2022-11-20T06:59:08;22.20;72.90
1956;DHT22;978;48.314;11.562;2022-11-20T07:01:35;22.20;72.90
1956;DHT22;978;48.314;11.562;2022-11-20T07:04:02;22.20;72.90
1956;DHT22;978;48.314;11.562;2022-11-20T07:06:29;22.20;72.90
1956;DHT22;978;48.314;11.562;2022-11-20T07:08:56;22.20;72.90
1956;DHT22;978;48.314;11.562;2022-11-20T07:11:22;22.20;72.90
1956;DHT22;978;48.314;11.562;2022-11-20T07:13:50;22.20;72.90
1956;DHT22;978;48.314;11.562;2022-11-20T07:16:18;22.20;73.00
1956;DHT22;978;48.314;11.562;2022-11-20T07:18:44;22.20;72.90
1956;DHT22;978;48.314;11.562;2022-11-20T07:21:11;22.20;72.90
1956;DHT22;978;48.314;11.562;2022-11-20T07:23:38;22.20;72.90
1956;DHT22;978;48.314;11.562;2022-11-20T07:26:05;22.20;72.90
1956;DHT22;978;48.314;11.562;2022-11-20T07:28:33;22.20;72.80
1956;DHT22;978;48.314;11.562;2022-11-20T07:30:59;22.20;72.80
1956;DHT22;978;48.314;11.562;2022-11-20T07:33:28;22.20;72.70
1956;DHT22;978;48.314;11.562;2022-11-20T07:35:55;22.20;72.60
1956;DHT22;978;48.314;11.562;2022-11-20T07:38:21;22.20;72.50
1956;DHT22;978;48.314;11.562;2022-11-20T07:40:48;22.20;72.50
1956;DHT22;978;48.314;11.562;2022-11-20T07:43:15;22.20;72.40
1956;DHT22;978;48.314;11.562;2022-11-20T07:45:42;22.20;72.20
1956;DHT22;978;48.314;11.562;2022-11-20T07:48:08;22.20;72.00
1956;DHT22;978;48.314;11.562;2022-11-20T07:50:36;22.20;71.70
1956;DHT22;978;48.314;11.562;2022-11-20T07:53:04;22.20;71.60
1956;DHT22;978;48.314;11.562;2022-11-20T07:55:31;22.20;71.50
1956;DHT22;978;48.314;11.562;2022-11-20T07:57:58;22.20;71.30
1956;DHT22;978;48.314;11.562;2022-11-20T08:00:25;22.20;71.20
1956;DHT22;978;48.314;11.562;2022-11-20T08:02:51;22.20;71.00
1956;DHT22;978;48.314;11.562;2022-11-20T08:05:18;22.20;70.80
1956;DHT22;978;48.314;11.562;2022-11-20T08:07:46;22.10;70.70
1956;DHT22;978;48.314;11.562;2022-11-20T08:10:14;22.20;70.70
1956;DHT22;978;48.314;11.562;2022-11-20T08:12:45;22.20;70.40
1956;DHT22;978;48.314;11.562;2022-11-20T08:15:30;22.10;70.20
1956;DHT22;978;48.314;11.562;2022-11-20T08:18:02;22.10;70.10
1956;DHT22;978;48.314;11.562;2022-11-20T08:20:28;22.20;70.00
1956;DHT22;978;48.314;11.562;2022-11-20T08:23:00;22.20;69.90
1956;DHT22;978;48.314;11.562;2022-11-20T08:25:28;22.20;69.70
1956;DHT22;978;48.314;11.562;2022-11-20T08:27:57;22.20;69.60
1956;DHT22;978;48.314;11.562;2022-11-20T08:30:24;22.10;69.40
1956;DHT22;978;48.314;11.562;2022-11-20T08:32:51;22.20;69.40
1956;DHT22;978;48.314;11.562;2022-11-20T08:35:17;22.20;69.30
1956;DHT22;978;48.314;11.562;2022-11-20T08:37:46;22.10;68.70
1956;DHT22;978;48.314;11.562;2022-11-20T08:40:14;22.20;69.20
1956;DHT22;978;48.314;11.562;2022-11-20T08:42:46;22.10;69.00
1956;DHT22;978;48.314;11.562;2022-11-20T08:45:13;22.10;68.90
1956;DHT22;978;48.314;11.562;2022-11-20T08:47:40;22.10;69.40
1956;DHT22;978;48.314;11.562;2022-11-20T08:50:08;22.10;68.80
1956;DHT22;978;48.314;11.562;2022-11-20T08:52:34;22.20;68.80
1956;DHT22;978;48.314;11.562;2022-11-20T08:55:01;22.20;68.70
1956;DHT22;978;48.314;11.562;2022-11-20T08:57:31;22.20;68.70
1956;DHT22;978;48.314;11.562;2022-11-20T08:59:58;22.10;68.50
1956;DHT22;978;48.314;11.562;2022-11-20T09:02:25;22.20;68.60
1956;DHT22;978;48.314;11.562;2022-11-20T09:04:52;22.20;68.40
1956;DHT22;978;48.314;11.562;2022-11-20T09:07:19;22.10;68.30
1956;DHT22;978;48.314;11.562;2022-11-20T09:09:46;22.10;68.20
1956;DHT22;978;48.314;11.562;2022-11-20T09:12:13;22.10;68.10
1956;DHT22;978;48.314;11.562;2022-11-20T09:14:41;22.10;68.10
1956;DHT22;978;48.314;11.562;2022-11-20T09:17:09;22.20;68.00
1956;DHT22;978;48.314;11.562;2022-11-20T09:19:38;22.20;68.00
1956;DHT22;978;48.314;11.562;2022-11-20T09:22:05;22.20;67.90
1956;DHT22;978;48.314;11.562;2022-11-20T09:24:32;22.20;67.90
1956;DHT22;978;48.314;11.562;2022-11-20T09:27:02;22.10;67.80
1956;DHT22;978;48.314;11.562;2022-11-20T09:29:29;22.10;67.70
1956;DHT22;978;48.314;11.562;2022-11-20T09:31:57;22.20;67.90
1956;DHT22;978;48.314;11.562;2022-11-20T09:34:24;22.10;67.80
1956;DHT22;978;48.314;11.562;2022-11-20T09:36:50;22.10;67.90
1956;DHT22;978;48.314;11.562;2022-11-20T09:39:17;22.20;67.90
1956;DHT22;978;48.314;11.562;2022-11-20T09:42:03;22.20;68.00
1956;DHT22;978;48.314;11.562;2022-11-20T09:44:40;22.10;67.60
1956;DHT22;978;48.314;11.562;2022-11-20T09:47:16;22.10;68.00
1956;DHT22;978;48.314;11.562;2022-11-20T09:49:57;22.10;67.60
1956;DHT22;978;48.314;11.562;2022-11-20T09:52:32;22.10;67.70
1956;DHT22;978;48.314;11.562;2022-11-20T09:55:03;22.10;67.90
1956;DHT22;978;48.314;11.562;2022-11-20T09:57:37;22.10;68.00
1956;DHT22;978;48.314;11.562;2022-11-20T10:00:06;22.10;68.00
1956;DHT22;978;48.314;11.562;2022-11-20T10:02:42;22.10;68.00
1956;DHT22;978;48.314;11.562;2022-11-20T10:05:13;22.10;68.10
1956;DHT22;978;48.314;11.562;2022-11-20T10:07:44;22.10;68.20
1956;DHT22;978;48.314;11.562;2022-11-20T10:10:15;22.10;68.20
1956;DHT22;978;48.314;11.562;2022-11-20T10:12:55;22.10;68.20
1956;DHT22;978;48.314;11.562;2022-11-20T10:15:33;22.10;68.30
1956;DHT22;978;48.314;11.562;2022-11-20T10:18:13;22.10;68.40
1956;DHT22;978;48.314;11.562;2022-11-20T10:20:48;22.20;68.70
1956;DHT22;978;48.314;11.562;2022-11-20T10:23:41;22.10;68.70
1956;DHT22;978;48.314;11.562;2022-11-20T10:26:19;22.10;69.00
1956;DHT22;978;48.314;11.562;2022-11-20T10:29:01;22.20;69.30
1956;DHT22;978;48.314;11.562;2022-11-20T10:31:35;22.20;69.50
1956;DHT22;978;48.314;11.562;2022-11-20T10:34:06;22.20;69.60
1956;DHT22;978;48.314;11.562;2022-11-20T10:36:38;22.20;69.80
1956;DHT22;978;48.314;11.562;2022-11-20T10:39:18;22.20;69.90
1956;DHT22;978;48.314;11.562;2022-11-20T10:41:51;22.20;70.00
1956;DHT22;978;48.314;11.562;2022-11-20T10:44:21;22.20;70.00
1956;DHT22;978;48.314;11.562;2022-11-20T10:47:03;22.20;70.00
1956;DHT22;978;48.314;11.562;2022-11-20T10:49:32;22.20;70.00
1956;DHT22;978;48.314;11.562;2022-11-20T10:52:07;22.20;69.90
1956;DHT22;978;48.314;11.562;2022-11-20T10:54:40;22.20;70.00
1956;DHT22;978;48.314;11.562;2022-11-20T10:57:18;22.20;69.90
1956;DHT22;978;48.314;11.562;2022-11-20T10:59:56;22.20;70.00
1956;DHT22;978;48.314;11.562;2022-11-20T11:02:32;22.10;70.50
1956;DHT22;978;48.314;11.562;2022-11-20T11:05:16;22.10;70.00
1956;DHT22;978;48.314;11.562;2022-11-20T11:07:45;22.10;70.00
1956;DHT22;978;48.314;11.562;2022-11-20T11:10:16;22.20;70.20
1956;DHT22;978;48.314;11.562;2022-11-20T11:12:45;22.20;70.30
1956;DHT22;978;48.314;11.562;2022-11-20T11:15:24;22.20;70.50
1956;DHT22;978;48.314;11.562;2022-11-20T11:17:50;22.10;70.60
1956;DHT22;978;48.314;11.562;2022-11-20T11:20:20;22.20;70.60
1956;DHT22;978;48.314;11.562;2022-11-20T11:22:49;22.20;70.80
1956;DHT22;978;48.314;11.562;2022-11-20T11:25:23;22.20;70.80
1956;DHT22;978;48.314;11.562;2022-11-20T11:27:51;22.20;70.80
1956;DHT22;978;48.314;11.562;2022-11-20T11:30:19;22.20;70.80
1956;DHT22;978;48.314;11.562;2022-11-20T11:32:46;22.20;71.00
1956;DHT22;978;48.314;11.562;2022-11-20T11:35:23;22.20;70.90
1956;DHT22;978;48.314;11.562;2022-11-20T11:37:51;22.20;70.90
1956;DHT22;978;48.314;11.562;2022-11-20T11:40:21;22.20;71.00
1956;DHT22;978;48.314;11.562;2022-11-20T11:42:53;22.10;70.80
1956;DHT22;978;48.314;11.562;2022-11-20T11:45:20;22.20;70.90
1956;DHT22;978;48.314;11.562;2022-11-20T11:47:47;22.20;70.90
1956;DHT22;978;48.314;11.562;2022-11-20T11:50:16;22.10;70.80
1956;DHT22;978;48.314;11.562;2022-11-20T11:52:49;22.20;70.80
1956;DHT22;978;48.314;11.562;2022-11-20T11:55:25;22.10;70.70
1956;DHT22;978;48.314;11.562;2022-11-20T11:58:00;22.10;70.70
1956;DHT22;978;48.314;11.562;2022-11-20T12:00:32;22.20;70.70
1956;DHT22;978;48.314;11.562;2022-11-20T12:03:07;22.20;70.60
1956;DHT22;978;48.314;11.562;2022-11-20T12:05:39;22.20;70.50
1956;DHT22;978;48.314;11.562;2022-11-20T12:08:15;22.10;70.50
1956;DHT22;978;48.314;11.562;2022-11-20T12:10:47;22.20;70.50
1956;DHT22;978;48.314;11.562;2022-11-20T12:13:22;22.10;70.40
1956;DHT22;978;48.314;11.562;2022-11-20T12:15:51;22.20;70.50
1956;DHT22;978;48.314;11.562;2022-11-20T12:18:20;22.20;70.50
1956;DHT22;978;48.314;11.562;2022-11-20T12:20:55;22.20;70.50
1956;DHT22;978;48.314;11.562;2022-11-20T12:23:30;22.10;70.50
1956;DHT22;978;48.314;11.562;2022-11-20T12:26:05;22.20;70.50
1956;DHT22;978;48.314;11.562;2022-11-20T12:28:42;22.20;70.50
1956;DHT22;978;48.314;11.562;2022-11-20T12:31:23;22.10;70.50
1956;DHT22;978;48.314;11.562;2022-11-20T12:34:02;22.10;70.50
1956;DHT22;978;48.314;11.562;2022-11-20T12:36:38;22.10;70.70
1956;DHT22;978;48.314;11.562;2022-11-20T12:39:26;22.20;71.00
1956;DHT22;978;48.314;11.562;2022-11-20T12:42:27;22.10;70.90
1956;DHT22;978;48.314;11.562;2022-11-20T12:45:28;22.10;70.90
1956;DHT22;978;48.314;11.562;2022-11-20T12:48:12;22.20;71.00
1956;DHT22;978;48.314;11.562;2022-11-20T12:50:50;22.20;70.90
1956;DHT22;978;48.314;11.562;2022-11-20T12:53:27;22.20;70.90
1956;DHT22;978;48.314;11.562;2022-11-20T12:56:07;22.20;70.90
1956;DHT22;978;48.314;11.562;2022-11-20T12:58:46;22.20;71.00
1956;DHT22;978;48.314;11.562;2022-11-20T13:01:24;22.20;71.00
1956;DHT22;978;48.314;11.562;2022-11-20T13:04:17;22.20;71.10
1956;DHT22;978;48.314;11.562;2022-11-20T13:06:45;22.20;71.20
1956;DHT22;978;48.314;11.562;2022-11-20T13:09:14;22.20;71.40
1956;DHT22;978;48.314;11.562;2022-11-20T13:11:46;22.20;71.70
1956;DHT22;978;48.314;11.562;2022-11-20T13:14:26;22.20;72.00
1956;DHT22;978;48.314;11.562;2022-11-20T13:16:58;22.20;72.20
1956;DHT22;978;48.314;11.562;2022-11-20T13:19:27;22.20;72.50
1956;DHT22;978;48.314;11.562;2022-11-20T13:21:55;22.20;72.80
1956;DHT22;978;48.314;11.562;2022-11-20T13:24:24;22.20;73.80
1956;DHT22;978;48.314;11.562;2022-11-20T13:29:58;22.20;75.40
1956;DHT22;978;48.314;11.562;2022-11-20T13:32:26;22.20;76.90
1956;DHT22;978;48.314;11.562;2022-11-20T13:34:59;22.20;77.40
1956;DHT22;978;48.314;11.562;2022-11-20T13:37:28;22.20;78.00
1956;DHT22;978;48.314;11.562;2022-11-20T13:40:20;22.20;78.30
1956;DHT22;978;48.314;11.562;2022-11-20T13:42:56;22.20;78.70
1956;DHT22;978;48.314;11.562;2022-11-20T13:45:25;22.20;79.30
1956;DHT22;978;48.314;11.562;2022-11-20T13:47:53;22.20;79.50
1956;DHT22;978;48.314;11.562;2022-11-20T13:50:40;22.20;79.80
1956;DHT22;978;48.314;11.562;2022-11-20T13:53:20;22.20;80.30
1956;DHT22;978;48.314;11.562;2022-11-20T13:55:54;22.20;80.40
1956;DHT22;978;48.314;11.562;2022-11-20T13:58:31;22.20;80.90
1956;DHT22;978;48.314;11.562;2022-11-20T14:01:10;22.20;81.30
1956;DHT22;978;48.314;11.562;2022-11-20T14:03:38;22.20;81.40
1956;DHT22;978;48.314;11.562;2022-11-20T14:06:11;22.20;81.60
1956;DHT22;978;48.314;11.562;2022-11-20T14:08:42;22.20;81.80
1956;DHT22;978;48.314;11.562;2022-11-20T14:11:15;22.20;82.10
1956;DHT22;978;48.314;11.562;2022-11-20T14:13:54;22.20;82.20
1956;DHT22;978;48.314;11.562;2022-11-20T14:16:21;22.20;82.30
1956;DHT22;978;48.314;11.562;2022-11-20T14:18:48;22.20;82.70
1956;DHT22;978;48.314;11.562;2022-11-20T14:21:22;22.20;79.90
1956;DHT22;978;48.314;11.562;2022-11-20T14:23:54;22.10;77.60
1956;DHT22;978;48.314;11.562;2022-11-20T14:26:28;22.00;76.60
1956;DHT22;978;48.314;11.562;2022-11-20T14:28:57;22.00;77.90
1956;DHT22;978;48.314;11.562;2022-11-20T14:31:25;22.10;80.50
1956;DHT22;978;48.314;11.562;2022-11-20T14:33:53;22.10;80.70
1956;DHT22;978;48.314;11.562;2022-11-20T14:36:22;22.10;80.00
1956;DHT22;978;48.314;11.562;2022-11-20T14:38:50;22.10;79.90
1956;DHT22;978;48.314;11.562;2022-11-20T14:41:18;22.20;80.00
1956;DHT22;978;48.314;11.562;2022-11-20T14:43:47;22.10;80.20
1956;DHT22;978;48.314;11.562;2022-11-20T14:46:17;22.20;80.20
1956;DHT22;978;48.314;11.562;2022-11-20T14:48:46;22.10;80.20
1956;DHT22;978;48.314;11.562;2022-11-20T14:51:25;22.20;80.20
1956;DHT22;978;48.314;11.562;2022-11-20T14:53:53;22.20;80.30
1956;DHT22;978;48.314;11.562;2022-11-20T14:56:22;22.20;80.40
1956;DHT22;978;48.314;11.562;2022-11-20T14:58:55;22.20;80.50
1956;DHT22;978;48.314;11.562;2022-11-20T15:01:28;22.20;80.10
1956;DHT22;978;48.314;11.562;2022-11-20T15:04:01;22.10;79.30
1956;DHT22;978;48.314;11.562;2022-11-20T15:06:28;22.10;80.20
1956;DHT22;978;48.314;11.562;2022-11-20T15:08:57;22.10;80.40
1956;DHT22;978;48.314;11.562;2022-11-20T15:11:28;22.10;79.80
1956;DHT22;978;48.314;11.562;2022-11-20T15:13:57;22.10;79.70
1956;DHT22;978;48.314;11.562;2022-11-20T15:16:25;22.10;79.80
1956;DHT22;978;48.314;11.562;2022-11-20T15:18:53;22.10;79.80
1956;DHT22;978;48.314;11.562;2022-11-20T15:21:20;22.20;79.90
1956;DHT22;978;48.314;11.562;2022-11-20T15:23:48;22.20;79.80
1956;DHT22;978;48.314;11.562;2022-11-20T15:26:20;22.10;79.60
1956;DHT22;978;48.314;11.562;2022-11-20T15:28:49;22.20;79.80
1956;DHT22;978;48.314;11.562;2022-11-20T15:31:17;22.10;79.50
1956;DHT22;978;48.314;11.562;2022-11-20T15:33:46;22.10;79.40
1956;DHT22;978;48.314;11.562;2022-11-20T15:36:13;22.20;78.50
1956;DHT22;978;48.314;11.562;2022-11-20T15:38:40;22.20;78.30
1956;DHT22;978;48.314;11.562;2022-11-20T15:41:07;22.20;77.90
1956;DHT22;978;48.314;11.562;2022-11-20T15:43:33;22.20;78.50
1956;DHT22;978;48.314;11.562;2022-11-20T15:46:03;22.20;79.70
1956;DHT22;978;48.314;11.562;2022-11-20T15:48:34;22.20;79.90
1956;DHT22;978;48.314;11.562;2022-11-20T15:51:05;22.20;80.70
1956;DHT22;978;48.314;11.562;2022-11-20T15:53:33;22.20;80.90
1956;DHT22;978;48.314;11.562;2022-11-20T15:56:00;22.20;80.20
1956;DHT22;978;48.314;11.562;2022-11-20T15:58:27;22.20;80.80
1956;DHT22;978;48.314;11.562;2022-11-20T16:00:55;22.20;80.80
1956;DHT22;978;48.314;11.562;2022-11-20T16:03:22;22.20;82.20
1956;DHT22;978;48.314;11.562;2022-11-20T16:05:48;22.20;80.50
1956;DHT22;978;48.314;11.562;2022-11-20T16:08:17;22.20;81.40
1956;DHT22;978;48.314;11.562;2022-11-20T16:10:44;22.20;82.00
1956;DHT22;978;48.314;11.562;2022-11-20T16:13:15;22.20;82.10
1956;DHT22;978;48.314;11.562;2022-11-20T16:16:01;22.20;81.50
1956;DHT22;978;48.314;11.562;2022-11-20T16:18:31;22.20;81.30
1956;DHT22;978;48.314;11.562;2022-11-20T16:20:57;22.20;81.30